sensor_id;sensor_type;location;lat;lon;timestamp;P1;durP1;ratioP1;P2;durP2;ratioP2
65543;SDS011;52173;45.204;39.240;2022-07-12T00:01:04;12.90;;;10.73;;
65543;SDS011;52173;45.204;39.240;2022-07-12T00:03:30;11.93;;;10.00;;
65543;SDS011;52173;45.204;39.240;2022-07-12T00:05:56;11.90;;;9.25;;
65543;SDS011;52173;45.204;39.240;2022-07-12T00:08:23;10.23;;;9.05;;
65543;SDS011;52173;45.204;39.240;2022-07-12T00:22:14;13.10;;;9.73;;
65543;SDS011;52173;45.204;39.240;2022-07-12T00:24:40;10.25;;;9.25;;
65543;SDS011;52173;45.204;39.240;2022-07-12T00:27:06;12.20;;;9.55;;
65543;SDS011;52173;45.204;39.240;2022-07-12T00:29:33;11.55;;;8.90;;
65543;SDS011;52173;45.204;39.240;2022-07-12T00:31:59;10.75;;;9.68;;
65543;SDS011;52173;45.204;39.240;2022-07-12T00:34:25;10.55;;;9.55;;
65543;SDS011;52173;45.204;39.240;2022-07-12T00:36:51;16.50;;;10.40;;
65543;SDS011;52173;45.204;39.240;2022-07-12T00:39:17;14.02;;;9.52;;
65543;SDS011;52173;45.204;39.240;2022-07-12T00:41:47;10.60;;;9.60;;
65543;SDS011;52173;45.204;39.240;2022-07-12T00:44:14;14.07;;;9.43;;
65543;SDS011;52173;45.204;39.240;2022-07-12T00:46:40;10.68;;;9.57;;
65543;SDS011;52173;45.204;39.240;2022-07-12T00:49:06;12.18;;;10.00;;
65543;SDS011;52173;45.204;39.240;2022-07-12T00:51:33;11.43;;;9.60;;
65543;SDS011;52173;45.204;39.240;2022-07-12T00:53:59;12.70;;;10.13;;
65543;SDS011;52173;45.204;39.240;2022-07-12T00:56:25;10.48;;;9.32;;
65543;SDS011;52173;45.204;39.240;2022-07-12T00:58:51;13.80;;;10.65;;
65543;SDS011;52173;45.204;39.240;2022-07-12T01:01:18;13.23;;;10.55;;
65543;SDS011;52173;45.204;39.240;2022-07-12T01:03:44;15.68;;;11.82;;
65543;SDS011;52173;45.204;39.240;2022-07-12T01:06:11;13.65;;;11.77;;
65543;SDS011;52173;45.204;39.240;2022-07-12T01:08:37;14.05;;;12.65;;
65543;SDS011;52173;45.204;39.240;2022-07-12T01:11:04;14.88;;;13.00;;
65543;SDS011;52173;45.204;39.240;2022-07-12T01:13:30;14.45;;;12.43;;
65543;SDS011;52173;45.204;39.240;2022-07-12T01:15:57;13.20;;;11.88;;
65543;SDS011;52173;45.204;39.240;2022-07-12T01:18:23;14.02;;;12.63;;
65543;SDS011;52173;45.204;39.240;2022-07-12T01:20:52;16.60;;;12.88;;
65543;SDS011;52173;45.204;39.240;2022-07-12T01:23:20;17.15;;;13.25;;
65543;SDS011;52173;45.204;39.240;2022-07-12T01:25:48;13.60;;;12.13;;
65543;SDS011;52173;45.204;39.240;2022-07-12T01:28:14;13.95;;;12.52;;
65543;SDS011;52173;45.204;39.240;2022-07-12T01:30:40;16.13;;;12.38;;
65543;SDS011;52173;45.204;39.240;2022-07-12T01:33:07;16.23;;;13.38;;
65543;SDS011;52173;45.204;39.240;2022-07-12T01:35:33;14.00;;;12.35;;
65543;SDS011;52173;45.204;39.240;2022-07-12T01:38:01;17.45;;;13.85;;
65543;SDS011;52173;45.204;39.240;2022-07-12T01:40:27;17.23;;;11.15;;
65543;SDS011;52173;45.204;39.240;2022-07-12T01:42:54;17.48;;;12.50;;
65543;SDS011;52173;45.204;39.240;2022-07-12T01:45:20;14.43;;;11.05;;
65543;SDS011;52173;45.204;39.240;2022-07-12T01:47:46;12.43;;;10.68;;
65543;SDS011;52173;45.204;39.240;2022-07-12T01:50:14;16.20;;;12.02;;
65543;SDS011;52173;45.204;39.240;2022-07-12T01:52:41;16.20;;;13.40;;
65543;SDS011;52173;45.204;39.240;2022-07-12T01:55:08;17.92;;;13.32;;
65543;SDS011;52173;45.204;39.240;2022-07-12T01:57:35;16.75;;;14.13;;
65543;SDS011;52173;45.204;39.240;2022-07-12T02:00:04;16.40;;;13.43;;
65543;SDS011;52173;45.204;39.240;2022-07-12T02:02:31;15.20;;;13.57;;
65543;SDS011;52173;45.204;39.240;2022-07-12T02:05:01;15.00;;;13.25;;
65543;SDS011;52173;45.204;39.240;2022-07-12T02:07:28;15.30;;;13.75;;
65543;SDS011;52173;45.204;39.240;2022-07-12T02:09:55;15.02;;;13.52;;
65543;SDS011;52173;45.204;39.240;2022-07-12T02:12:21;15.90;;;14.13;;
65543;SDS011;52173;45.204;39.240;2022-07-12T02:14:47;15.95;;;14.25;;
65543;SDS011;52173;45.204;39.240;2022-07-12T02:17:14;14.38;;;12.80;;
65543;SDS011;52173;45.204;39.240;2022-07-12T02:19:40;15.40;;;12.55;;
65543;SDS011;52173;45.204;39.240;2022-07-12T02:22:07;14.90;;;13.27;;
65543;SDS011;52173;45.204;39.240;2022-07-12T02:24:33;16.13;;;14.43;;
65543;SDS011;52173;45.204;39.240;2022-07-12T02:26:59;15.57;;;13.60;;
65543;SDS011;52173;45.204;39.240;2022-07-12T02:29:25;16.00;;;12.63;;
65543;SDS011;52173;45.204;39.240;2022-07-12T02:31:52;17.05;;;13.18;;
65543;SDS011;52173;45.204;39.240;2022-07-12T02:34:18;13.70;;;12.27;;
65543;SDS011;52173;45.204;39.240;2022-07-12T02:36:44;17.85;;;12.95;;
65543;SDS011;52173;45.204;39.240;2022-07-12T02:39:10;13.75;;;12.35;;
65543;SDS011;52173;45.204;39.240;2022-07-12T02:41:36;15.43;;;12.30;;
65543;SDS011;52173;45.204;39.240;2022-07-12T02:44:03;15.80;;;14.13;;
65543;SDS011;52173;45.204;39.240;2022-07-12T02:46:29;15.90;;;13.40;;
65543;SDS011;52173;45.204;39.240;2022-07-12T02:48:55;17.10;;;13.10;;
65543;SDS011;52173;45.204;39.240;2022-07-12T02:51:22;16.38;;;12.40;;
65543;SDS011;52173;45.204;39.240;2022-07-12T02:53:48;12.77;;;11.38;;
65543;SDS011;52173;45.204;39.240;2022-07-12T02:56:15;12.90;;;10.07;;
65543;SDS011;52173;45.204;39.240;2022-07-12T02:58:41;13.63;;;9.38;;
65543;SDS011;52173;45.204;39.240;2022-07-12T03:01:07;12.20;;;9.13;;
65543;SDS011;52173;45.204;39.240;2022-07-12T03:03:34;13.88;;;9.52;;
65543;SDS011;52173;45.204;39.240;2022-07-12T03:06:00;13.45;;;8.85;;
65543;SDS011;52173;45.204;39.240;2022-07-12T03:08:26;11.13;;;8.38;;
65543;SDS011;52173;45.204;39.240;2022-07-12T03:10:52;12.77;;;8.32;;
65543;SDS011;52173;45.204;39.240;2022-07-12T03:13:18;10.05;;;8.10;;
65543;SDS011;52173;45.204;39.240;2022-07-12T03:15:45;9.82;;;7.68;;
65543;SDS011;52173;45.204;39.240;2022-07-12T03:18:11;12.02;;;7.13;;
65543;SDS011;52173;45.204;39.240;2022-07-12T03:20:38;14.07;;;8.23;;
65543;SDS011;52173;45.204;39.240;2022-07-12T03:23:04;11.13;;;6.95;;
65543;SDS011;52173;45.204;39.240;2022-07-12T03:25:30;8.75;;;6.95;;
65543;SDS011;52173;45.204;39.240;2022-07-12T03:27:57;12.70;;;7.03;;
65543;SDS011;52173;45.204;39.240;2022-07-12T03:30:23;10.75;;;6.88;;
65543;SDS011;52173;45.204;39.240;2022-07-12T03:32:49;10.55;;;6.50;;
65543;SDS011;52173;45.204;39.240;2022-07-12T03:35:15;7.38;;;6.35;;
65543;SDS011;52173;45.204;39.240;2022-07-12T03:37:46;9.57;;;5.95;;
65543;SDS011;52173;45.204;39.240;2022-07-12T03:40:14;11.00;;;6.20;;
65543;SDS011;52173;45.204;39.240;2022-07-12T03:42:41;10.25;;;5.65;;
65543;SDS011;52173;45.204;39.240;2022-07-12T03:45:08;8.10;;;5.88;;
65543;SDS011;52173;45.204;39.240;2022-07-12T03:47:35;9.18;;;5.10;;
65543;SDS011;52173;45.204;39.240;2022-07-12T03:50:04;7.63;;;5.20;;
65543;SDS011;52173;45.204;39.240;2022-07-12T03:52:34;10.80;;;5.65;;
65543;SDS011;52173;45.204;39.240;2022-07-12T03:55:00;10.48;;;5.60;;
65543;SDS011;52173;45.204;39.240;2022-07-12T03:57:29;9.48;;;5.53;;
65543;SDS011;52173;45.204;39.240;2022-07-12T03:59:56;9.27;;;5.63;;
65543;SDS011;52173;45.204;39.240;2022-07-12T04:02:22;8.02;;;5.30;;
65543;SDS011;52173;45.204;39.240;2022-07-12T04:04:50;9.65;;;5.00;;
65543;SDS011;52173;45.204;39.240;2022-07-12T04:07:16;11.52;;;4.93;;
65543;SDS011;52173;45.204;39.240;2022-07-12T04:09:44;6.93;;;4.88;;
65543;SDS011;52173;45.204;39.240;2022-07-12T04:12:10;9.30;;;5.28;;
65543;SDS011;52173;45.204;39.240;2022-07-12T04:14:36;7.38;;;4.80;;
65543;SDS011;52173;45.204;39.240;2022-07-12T04:17:03;8.27;;;4.55;;
65543;SDS011;52173;45.204;39.240;2022-07-12T04:19:31;9.95;;;4.82;;
65543;SDS011;52173;45.204;39.240;2022-07-12T04:21:58;8.90;;;4.70;;
65543;SDS011;52173;45.204;39.240;2022-07-12T04:24:25;10.32;;;5.65;;
65543;SDS011;52173;45.204;39.240;2022-07-12T04:26:51;13.02;;;5.18;;
65543;SDS011;52173;45.204;39.240;2022-07-12T04:29:18;11.13;;;5.20;;
65543;SDS011;52173;45.204;39.240;2022-07-12T04:31:45;8.27;;;4.60;;
65543;SDS011;52173;45.204;39.240;2022-07-12T04:34:11;8.98;;;3.92;;
65543;SDS011;52173;45.204;39.240;2022-07-12T04:36:37;6.80;;;4.13;;
65543;SDS011;52173;45.204;39.240;2022-07-12T04:39:03;10.05;;;4.18;;
65543;SDS011;52173;45.204;39.240;2022-07-12T04:41:29;11.07;;;4.68;;
65543;SDS011;52173;45.204;39.240;2022-07-12T04:43:56;9.40;;;4.25;;
65543;SDS011;52173;45.204;39.240;2022-07-12T04:46:22;8.35;;;4.18;;
65543;SDS011;52173;45.204;39.240;2022-07-12T04:48:48;5.90;;;3.90;;
65543;SDS011;52173;45.204;39.240;2022-07-12T04:51:14;8.40;;;3.97;;
65543;SDS011;52173;45.204;39.240;2022-07-12T04:53:42;7.55;;;4.03;;
65543;SDS011;52173;45.204;39.240;2022-07-12T04:56:08;9.15;;;3.90;;
65543;SDS011;52173;45.204;39.240;2022-07-12T04:58:34;8.35;;;3.28;;
65543;SDS011;52173;45.204;39.240;2022-07-12T05:01:01;8.13;;;3.00;;
65543;SDS011;52173;45.204;39.240;2022-07-12T05:03:27;7.60;;;3.47;;
65543;SDS011;52173;45.204;39.240;2022-07-12T05:05:54;8.57;;;3.50;;
65543;SDS011;52173;45.204;39.240;2022-07-12T05:08:21;8.98;;;3.33;;
65543;SDS011;52173;45.204;39.240;2022-07-12T05:10:47;7.25;;;3.47;;
65543;SDS011;52173;45.204;39.240;2022-07-12T05:13:14;7.07;;;3.08;;
65543;SDS011;52173;45.204;39.240;2022-07-12T05:15:40;5.28;;;2.80;;
65543;SDS011;52173;45.204;39.240;2022-07-12T05:18:06;7.63;;;2.78;;
65543;SDS011;52173;45.204;39.240;2022-07-12T05:20:32;8.32;;;2.90;;
65543;SDS011;52173;45.204;39.240;2022-07-12T05:22:59;8.85;;;2.80;;
65543;SDS011;52173;45.204;39.240;2022-07-12T05:25:25;5.63;;;3.00;;
65543;SDS011;52173;45.204;39.240;2022-07-12T05:27:51;8.38;;;3.10;;
65543;SDS011;52173;45.204;39.240;2022-07-12T05:30:18;7.57;;;2.75;;
65543;SDS011;52173;45.204;39.240;2022-07-12T05:32:44;7.75;;;2.63;;
65543;SDS011;52173;45.204;39.240;2022-07-12T05:35:10;7.53;;;3.10;;
65543;SDS011;52173;45.204;39.240;2022-07-12T05:37:36;7.03;;;2.45;;
65543;SDS011;52173;45.204;39.240;2022-07-12T05:40:02;6.93;;;2.55;;
65543;SDS011;52173;45.204;39.240;2022-07-12T05:42:29;7.97;;;2.35;;
65543;SDS011;52173;45.204;39.240;2022-07-12T05:44:55;8.00;;;2.08;;
65543;SDS011;52173;45.204;39.240;2022-07-12T05:47:21;7.07;;;2.20;;
65543;SDS011;52173;45.204;39.240;2022-07-12T05:49:48;8.38;;;2.00;;
65543;SDS011;52173;45.204;39.240;2022-07-12T05:52:14;8.18;;;2.90;;
65543;SDS011;52173;45.204;39.240;2022-07-12T05:54:58;6.63;;;2.53;;
65543;SDS011;52173;45.204;39.240;2022-07-12T05:57:24;5.40;;;3.20;;
65543;SDS011;52173;45.204;39.240;2022-07-12T05:59:51;6.65;;;2.42;;
65543;SDS011;52173;45.204;39.240;2022-07-12T06:02:17;5.85;;;2.67;;
65543;SDS011;52173;45.204;39.240;2022-07-12T06:04:43;9.35;;;2.58;;
65543;SDS011;52173;45.204;39.240;2022-07-12T06:07:09;10.18;;;2.70;;
65543;SDS011;52173;45.204;39.240;2022-07-12T06:09:36;5.80;;;2.42;;
65543;SDS011;52173;45.204;39.240;2022-07-12T06:12:02;6.65;;;2.50;;
65543;SDS011;52173;45.204;39.240;2022-07-12T06:14:28;12.93;;;2.67;;
65543;SDS011;52173;45.204;39.240;2022-07-12T06:16:55;6.65;;;2.33;;
65543;SDS011;52173;45.204;39.240;2022-07-12T06:19:21;7.28;;;2.50;;
65543;SDS011;52173;45.204;39.240;2022-07-12T06:21:49;6.97;;;3.10;;
65543;SDS011;52173;45.204;39.240;2022-07-12T06:24:15;5.95;;;2.50;;
65543;SDS011;52173;45.204;39.240;2022-07-12T06:26:41;5.45;;;2.17;;
65543;SDS011;52173;45.204;39.240;2022-07-12T06:29:08;5.57;;;2.17;;
65543;SDS011;52173;45.204;39.240;2022-07-12T06:31:34;4.45;;;2.22;;
65543;SDS011;52173;45.204;39.240;2022-07-12T06:34:00;5.40;;;1.80;;
65543;SDS011;52173;45.204;39.240;2022-07-12T06:36:26;7.57;;;1.90;;
65543;SDS011;52173;45.204;39.240;2022-07-12T06:38:52;7.53;;;2.08;;
65543;SDS011;52173;45.204;39.240;2022-07-12T06:41:18;5.82;;;1.88;;
65543;SDS011;52173;45.204;39.240;2022-07-12T06:43:45;4.70;;;2.10;;
65543;SDS011;52173;45.204;39.240;2022-07-12T06:46:12;5.65;;;2.00;;
65543;SDS011;52173;45.204;39.240;2022-07-12T06:48:38;8.25;;;2.10;;
65543;SDS011;52173;45.204;39.240;2022-07-12T06:51:04;8.48;;;1.95;;
65543;SDS011;52173;45.204;39.240;2022-07-12T06:53:30;6.60;;;1.85;;
65543;SDS011;52173;45.204;39.240;2022-07-12T06:55:56;3.58;;;1.92;;
65543;SDS011;52173;45.204;39.240;2022-07-12T06:58:23;4.65;;;2.20;;
65543;SDS011;52173;45.204;39.240;2022-07-12T07:00:49;4.75;;;2.00;;
65543;SDS011;52173;45.204;39.240;2022-07-12T07:03:15;4.10;;;1.88;;
65543;SDS011;52173;45.204;39.240;2022-07-12T07:05:41;5.18;;;2.30;;
65543;SDS011;52173;45.204;39.240;2022-07-12T07:08:07;8.57;;;2.45;;
65543;SDS011;52173;45.204;39.240;2022-07-12T07:10:33;8.70;;;2.28;;
65543;SDS011;52173;45.204;39.240;2022-07-12T07:13:00;7.38;;;2.35;;
65543;SDS011;52173;45.204;39.240;2022-07-12T07:15:26;7.47;;;1.92;;
65543;SDS011;52173;45.204;39.240;2022-07-12T07:17:52;5.70;;;2.00;;
65543;SDS011;52173;45.204;39.240;2022-07-12T07:20:18;5.63;;;2.30;;
65543;SDS011;52173;45.204;39.240;2022-07-12T07:22:45;35.17;;;3.75;;
65543;SDS011;52173;45.204;39.240;2022-07-12T07:25:11;5.63;;;2.30;;
65543;SDS011;52173;45.204;39.240;2022-07-12T07:27:37;7.35;;;2.30;;
65543;SDS011;52173;45.204;39.240;2022-07-12T07:30:04;6.25;;;2.55;;
65543;SDS011;52173;45.204;39.240;2022-07-12T07:32:50;4.47;;;2.65;;
65543;SDS011;52173;45.204;39.240;2022-07-12T07:35:16;7.78;;;2.40;;
65543;SDS011;52173;45.204;39.240;2022-07-12T07:37:42;8.23;;;2.45;;
65543;SDS011;52173;45.204;39.240;2022-07-12T07:40:08;6.15;;;2.47;;
65543;SDS011;52173;45.204;39.240;2022-07-12T07:42:35;5.70;;;2.53;;
65543;SDS011;52173;45.204;39.240;2022-07-12T07:45:01;4.70;;;2.20;;
65543;SDS011;52173;45.204;39.240;2022-07-12T07:47:31;8.60;;;2.65;;
65543;SDS011;52173;45.204;39.240;2022-07-12T07:50:07;7.68;;;2.58;;
65543;SDS011;52173;45.204;39.240;2022-07-12T07:52:34;5.32;;;2.58;;
65543;SDS011;52173;45.204;39.240;2022-07-12T07:55:00;5.03;;;2.55;;
65543;SDS011;52173;45.204;39.240;2022-07-12T07:57:26;4.35;;;2.20;;
65543;SDS011;52173;45.204;39.240;2022-07-12T07:59:52;7.38;;;2.60;;
65543;SDS011;52173;45.204;39.240;2022-07-12T08:02:18;5.70;;;2.53;;
65543;SDS011;52173;45.204;39.240;2022-07-12T08:04:45;4.68;;;2.60;;
65543;SDS011;52173;45.204;39.240;2022-07-12T08:07:11;5.30;;;2.22;;
65543;SDS011;52173;45.204;39.240;2022-07-12T08:09:37;5.57;;;2.47;;
65543;SDS011;52173;45.204;39.240;2022-07-12T08:12:03;8.90;;;2.47;;
65543;SDS011;52173;45.204;39.240;2022-07-12T08:14:30;5.55;;;2.58;;
65543;SDS011;52173;45.204;39.240;2022-07-12T08:16:56;6.22;;;2.40;;
65543;SDS011;52173;45.204;39.240;2022-07-12T08:19:22;4.88;;;2.28;;
65543;SDS011;52173;45.204;39.240;2022-07-12T08:21:49;6.80;;;2.20;;
65543;SDS011;52173;45.204;39.240;2022-07-12T08:24:15;6.10;;;2.25;;
65543;SDS011;52173;45.204;39.240;2022-07-12T08:26:41;4.70;;;2.30;;
65543;SDS011;52173;45.204;39.240;2022-07-12T08:29:07;5.47;;;2.17;;
65543;SDS011;52173;45.204;39.240;2022-07-12T08:31:33;7.78;;;2.55;;
65543;SDS011;52173;45.204;39.240;2022-07-12T08:34:00;5.28;;;1.90;;
65543;SDS011;52173;45.204;39.240;2022-07-12T08:36:26;4.30;;;1.98;;
65543;SDS011;52173;45.204;39.240;2022-07-12T08:38:52;6.50;;;2.17;;
65543;SDS011;52173;45.204;39.240;2022-07-12T08:41:19;6.60;;;2.17;;
65543;SDS011;52173;45.204;39.240;2022-07-12T08:43:45;3.88;;;1.90;;
65543;SDS011;52173;45.204;39.240;2022-07-12T08:46:12;4.13;;;1.92;;
65543;SDS011;52173;45.204;39.240;2022-07-12T08:48:40;3.55;;;2.00;;
65543;SDS011;52173;45.204;39.240;2022-07-12T08:53:35;5.18;;;2.05;;
65543;SDS011;52173;45.204;39.240;2022-07-12T08:56:02;5.45;;;2.08;;
65543;SDS011;52173;45.204;39.240;2022-07-12T08:58:30;4.65;;;2.20;;
65543;SDS011;52173;45.204;39.240;2022-07-12T09:00:56;5.88;;;2.30;;
65543;SDS011;52173;45.204;39.240;2022-07-12T09:03:22;6.43;;;2.60;;
65543;SDS011;52173;45.204;39.240;2022-07-12T09:05:53;5.15;;;2.10;;
65543;SDS011;52173;45.204;39.240;2022-07-12T09:08:26;6.55;;;2.33;;
65543;SDS011;52173;45.204;39.240;2022-07-12T09:10:58;9.82;;;2.70;;
65543;SDS011;52173;45.204;39.240;2022-07-12T09:16:19;4.50;;;2.35;;
65543;SDS011;52173;45.204;39.240;2022-07-12T09:18:47;4.10;;;2.20;;
65543;SDS011;52173;45.204;39.240;2022-07-12T09:23:52;4.90;;;2.33;;
65543;SDS011;52173;45.204;39.240;2022-07-12T09:26:21;5.70;;;2.55;;
65543;SDS011;52173;45.204;39.240;2022-07-12T09:28:55;6.88;;;3.25;;
65543;SDS011;52173;45.204;39.240;2022-07-12T09:31:38;4.37;;;2.40;;
65543;SDS011;52173;45.204;39.240;2022-07-12T09:34:40;5.47;;;2.30;;
65543;SDS011;52173;45.204;39.240;2022-07-12T09:37:25;7.63;;;2.50;;
65543;SDS011;52173;45.204;39.240;2022-07-12T09:39:52;4.68;;;2.72;;
65543;SDS011;52173;45.204;39.240;2022-07-12T09:42:19;4.28;;;2.22;;
65543;SDS011;52173;45.204;39.240;2022-07-12T09:44:47;4.90;;;2.28;;
65543;SDS011;52173;45.204;39.240;2022-07-12T09:47:14;6.55;;;2.20;;
65543;SDS011;52173;45.204;39.240;2022-07-12T09:49:44;4.00;;;2.20;;
65543;SDS011;52173;45.204;39.240;2022-07-12T09:52:12;3.97;;;2.20;;
65543;SDS011;52173;45.204;39.240;2022-07-12T09:54:45;6.43;;;2.33;;
65543;SDS011;52173;45.204;39.240;2022-07-12T09:59:58;4.18;;;2.45;;
65543;SDS011;52173;45.204;39.240;2022-07-12T10:02:25;5.30;;;2.20;;
65543;SDS011;52173;45.204;39.240;2022-07-12T10:04:52;4.13;;;2.10;;
65543;SDS011;52173;45.204;39.240;2022-07-12T10:07:18;4.53;;;2.30;;
65543;SDS011;52173;45.204;39.240;2022-07-12T10:09:47;4.20;;;2.05;;
65543;SDS011;52173;45.204;39.240;2022-07-12T10:12:17;5.38;;;2.40;;
65543;SDS011;52173;45.204;39.240;2022-07-12T10:14:45;5.13;;;2.53;;
65543;SDS011;52173;45.204;39.240;2022-07-12T10:17:13;4.10;;;2.20;;
65543;SDS011;52173;45.204;39.240;2022-07-12T10:19:48;4.13;;;2.00;;
65543;SDS011;52173;45.204;39.240;2022-07-12T10:22:20;4.72;;;2.47;;
65543;SDS011;52173;45.204;39.240;2022-07-12T10:24:51;5.00;;;2.33;;
65543;SDS011;52173;45.204;39.240;2022-07-12T10:29:46;5.45;;;2.58;;
65543;SDS011;52173;45.204;39.240;2022-07-12T10:35:03;9.02;;;3.85;;
65543;SDS011;52173;45.204;39.240;2022-07-12T10:37:37;6.20;;;3.17;;
65543;SDS011;52173;45.204;39.240;2022-07-12T10:40:16;6.13;;;2.78;;
65543;SDS011;52173;45.204;39.240;2022-07-12T10:45:32;7.25;;;2.60;;
65543;SDS011;52173;45.204;39.240;2022-07-12T10:48:01;5.75;;;2.80;;
65543;SDS011;52173;45.204;39.240;2022-07-12T10:58:31;7.75;;;3.20;;
65543;SDS011;52173;45.204;39.240;2022-07-12T11:01:11;18.85;;;3.25;;
65543;SDS011;52173;45.204;39.240;2022-07-12T11:03:40;5.03;;;2.72;;
65543;SDS011;52173;45.204;39.240;2022-07-12T11:06:19;7.00;;;2.78;;
65543;SDS011;52173;45.204;39.240;2022-07-12T11:08:50;4.70;;;2.75;;
65543;SDS011;52173;45.204;39.240;2022-07-12T11:11:19;3.58;;;2.60;;
65543;SDS011;52173;45.204;39.240;2022-07-12T11:13:47;6.57;;;2.65;;
65543;SDS011;52173;45.204;39.240;2022-07-12T11:16:14;6.88;;;2.90;;
65543;SDS011;52173;45.204;39.240;2022-07-12T11:18:40;7.20;;;3.00;;
65543;SDS011;52173;45.204;39.240;2022-07-12T11:21:06;8.25;;;2.78;;
65543;SDS011;52173;45.204;39.240;2022-07-12T11:23:33;6.18;;;2.97;;
65543;SDS011;52173;45.204;39.240;2022-07-12T11:26:01;7.03;;;2.83;;
65543;SDS011;52173;45.204;39.240;2022-07-12T11:28:29;9.75;;;3.00;;
65543;SDS011;52173;45.204;39.240;2022-07-12T11:31:13;5.15;;;3.10;;
65543;SDS011;52173;45.204;39.240;2022-07-12T11:33:44;7.47;;;2.92;;
65543;SDS011;52173;45.204;39.240;2022-07-12T11:36:12;5.22;;;2.80;;
65543;SDS011;52173;45.204;39.240;2022-07-12T11:38:40;7.35;;;2.92;;
65543;SDS011;52173;45.204;39.240;2022-07-12T11:41:08;5.85;;;2.67;;
65543;SDS011;52173;45.204;39.240;2022-07-12T11:43:36;6.43;;;3.00;;
65543;SDS011;52173;45.204;39.240;2022-07-12T11:46:04;6.32;;;2.90;;
65543;SDS011;52173;45.204;39.240;2022-07-12T11:48:31;9.20;;;3.00;;
65543;SDS011;52173;45.204;39.240;2022-07-12T11:51:01;5.75;;;2.60;;
65543;SDS011;52173;45.204;39.240;2022-07-12T11:53:30;7.68;;;3.00;;
65543;SDS011;52173;45.204;39.240;2022-07-12T11:55:57;7.53;;;2.83;;
65543;SDS011;52173;45.204;39.240;2022-07-12T11:58:25;5.88;;;2.85;;
65543;SDS011;52173;45.204;39.240;2022-07-12T12:00:53;5.55;;;2.58;;
65543;SDS011;52173;45.204;39.240;2022-07-12T12:03:20;8.23;;;3.08;;
65543;SDS011;52173;45.204;39.240;2022-07-12T12:05:49;8.70;;;2.80;;
65543;SDS011;52173;45.204;39.240;2022-07-12T12:08:17;4.60;;;2.25;;
65543;SDS011;52173;45.204;39.240;2022-07-12T12:10:52;7.18;;;2.70;;
65543;SDS011;52173;45.204;39.240;2022-07-12T12:13:21;5.57;;;2.50;;
65543;SDS011;52173;45.204;39.240;2022-07-12T12:15:49;4.97;;;2.38;;
65543;SDS011;52173;45.204;39.240;2022-07-12T12:18:26;5.13;;;2.08;;
65543;SDS011;52173;45.204;39.240;2022-07-12T12:21:04;4.07;;;2.28;;
65543;SDS011;52173;45.204;39.240;2022-07-12T12:23:32;6.95;;;2.58;;
65543;SDS011;52173;45.204;39.240;2022-07-12T12:26:15;4.10;;;2.20;;
65543;SDS011;52173;45.204;39.240;2022-07-12T12:28:46;6.97;;;2.70;;
65543;SDS011;52173;45.204;39.240;2022-07-12T12:31:18;9.18;;;2.60;;
65543;SDS011;52173;45.204;39.240;2022-07-12T12:33:48;6.00;;;2.50;;
65543;SDS011;52173;45.204;39.240;2022-07-12T12:38:54;6.43;;;2.58;;
65543;SDS011;52173;45.204;39.240;2022-07-12T12:41:27;8.15;;;2.60;;
65543;SDS011;52173;45.204;39.240;2022-07-12T12:44:01;4.75;;;2.47;;
65543;SDS011;52173;45.204;39.240;2022-07-12T12:49:49;7.75;;;2.60;;
65543;SDS011;52173;45.204;39.240;2022-07-12T12:52:16;6.13;;;2.60;;
65543;SDS011;52173;45.204;39.240;2022-07-12T12:54:43;5.05;;;2.33;;
65543;SDS011;52173;45.204;39.240;2022-07-12T12:57:10;6.63;;;2.40;;
65543;SDS011;52173;45.204;39.240;2022-07-12T12:59:37;4.75;;;2.30;;
65543;SDS011;52173;45.204;39.240;2022-07-12T13:02:04;4.78;;;2.22;;
65543;SDS011;52173;45.204;39.240;2022-07-12T13:04:32;6.45;;;2.30;;
65543;SDS011;52173;45.204;39.240;2022-07-12T13:07:00;3.72;;;2.15;;
65543;SDS011;52173;45.204;39.240;2022-07-12T13:09:27;30.02;;;3.58;;
65543;SDS011;52173;45.204;39.240;2022-07-12T13:11:55;6.78;;;2.63;;
65543;SDS011;52173;45.204;39.240;2022-07-12T13:14:21;3.45;;;1.90;;
65543;SDS011;52173;45.204;39.240;2022-07-12T13:16:48;11.43;;;2.42;;
65543;SDS011;52173;45.204;39.240;2022-07-12T13:19:15;4.72;;;2.45;;
65543;SDS011;52173;45.204;39.240;2022-07-12T13:21:41;5.75;;;2.40;;
65543;SDS011;52173;45.204;39.240;2022-07-12T13:24:08;3.70;;;2.20;;
65543;SDS011;52173;45.204;39.240;2022-07-12T13:26:35;9.55;;;2.25;;
65543;SDS011;52173;45.204;39.240;2022-07-12T13:29:02;6.50;;;2.55;;
65543;SDS011;52173;45.204;39.240;2022-07-12T13:31:29;5.68;;;2.10;;
65543;SDS011;52173;45.204;39.240;2022-07-12T13:33:55;3.92;;;2.53;;
65543;SDS011;52173;45.204;39.240;2022-07-12T13:36:21;4.28;;;2.17;;
65543;SDS011;52173;45.204;39.240;2022-07-12T13:38:48;8.45;;;2.30;;
65543;SDS011;52173;45.204;39.240;2022-07-12T13:41:15;3.65;;;2.22;;
65543;SDS011;52173;45.204;39.240;2022-07-12T13:43:41;4.07;;;2.00;;
65543;SDS011;52173;45.204;39.240;2022-07-12T13:46:07;4.60;;;2.13;;
65543;SDS011;52173;45.204;39.240;2022-07-12T13:48:33;5.10;;;2.28;;
65543;SDS011;52173;45.204;39.240;2022-07-12T13:50:59;5.88;;;2.40;;
65543;SDS011;52173;45.204;39.240;2022-07-12T13:53:25;3.97;;;2.38;;
65543;SDS011;52173;45.204;39.240;2022-07-12T13:55:52;5.97;;;2.05;;
65543;SDS011;52173;45.204;39.240;2022-07-12T13:58:18;5.10;;;1.92;;
65543;SDS011;52173;45.204;39.240;2022-07-12T14:00:44;4.68;;;1.90;;
65543;SDS011;52173;45.204;39.240;2022-07-12T14:03:10;7.35;;;1.77;;
65543;SDS011;52173;45.204;39.240;2022-07-12T14:05:36;4.28;;;1.58;;
65543;SDS011;52173;45.204;39.240;2022-07-12T14:08:03;5.13;;;1.98;;
65543;SDS011;52173;45.204;39.240;2022-07-12T14:10:29;11.02;;;2.35;;
65543;SDS011;52173;45.204;39.240;2022-07-12T14:12:57;4.75;;;1.70;;
65543;SDS011;52173;45.204;39.240;2022-07-12T14:15:23;6.13;;;1.67;;
65543;SDS011;52173;45.204;39.240;2022-07-12T14:18:05;6.38;;;1.70;;
65543;SDS011;52173;45.204;39.240;2022-07-12T14:20:33;2.90;;;1.60;;
65543;SDS011;52173;45.204;39.240;2022-07-12T14:23:02;5.93;;;1.60;;
65543;SDS011;52173;45.204;39.240;2022-07-12T14:25:31;10.38;;;2.30;;
65543;SDS011;52173;45.204;39.240;2022-07-12T14:27:58;5.40;;;3.10;;
65543;SDS011;52173;45.204;39.240;2022-07-12T14:30:24;6.07;;;2.10;;
65543;SDS011;52173;45.204;39.240;2022-07-12T14:32:50;6.28;;;2.20;;
65543;SDS011;52173;45.204;39.240;2022-07-12T14:35:16;6.40;;;1.80;;
65543;SDS011;52173;45.204;39.240;2022-07-12T14:37:43;5.53;;;1.70;;
65543;SDS011;52173;45.204;39.240;2022-07-12T14:40:09;4.35;;;1.85;;
65543;SDS011;52173;45.204;39.240;2022-07-12T14:42:36;2.58;;;1.60;;
65543;SDS011;52173;45.204;39.240;2022-07-12T14:45:02;5.55;;;2.25;;
65543;SDS011;52173;45.204;39.240;2022-07-12T14:47:29;6.05;;;2.00;;
65543;SDS011;52173;45.204;39.240;2022-07-12T14:49:55;4.18;;;2.00;;
65543;SDS011;52173;45.204;39.240;2022-07-12T14:52:21;6.32;;;2.30;;
65543;SDS011;52173;45.204;39.240;2022-07-12T14:54:48;6.65;;;2.00;;
65543;SDS011;52173;45.204;39.240;2022-07-12T14:57:16;8.25;;;1.90;;
65543;SDS011;52173;45.204;39.240;2022-07-12T14:59:43;5.82;;;2.50;;
65543;SDS011;52173;45.204;39.240;2022-07-12T15:02:09;4.43;;;2.65;;
65543;SDS011;52173;45.204;39.240;2022-07-12T15:04:35;4.80;;;1.75;;
65543;SDS011;52173;45.204;39.240;2022-07-12T15:07:01;3.65;;;1.63;;
65543;SDS011;52173;45.204;39.240;2022-07-12T15:09:28;6.28;;;1.60;;
65543;SDS011;52173;45.204;39.240;2022-07-12T15:11:54;5.55;;;1.83;;
65543;SDS011;52173;45.204;39.240;2022-07-12T15:14:21;3.80;;;1.30;;